Wednesday, August 24, 2016
01:34 UTC
  |  Log In   |  Register Free
Airport Search:

Kingsville Nas Airport
(KNQI)

FAA data valid effective May 26 2016 - Jul 21 2016 (unless otherwise noted).

 
 
 
 
 
 
 
 
 
 
 
 
 
 
Current Aviation Weather for KNQI

Weather Summary


The most recent METAR observation for NQI was updated at: 12:56 UTC
METAR for NQI is not available. Closest METAR is for
METAR

METAR KNQI 240056Z 13010KT 10SM FEW250 28/24 A3004 RMK AO2 SLP170 T02830239

METAR KNQI 232356Z 13012G22KT 10SM FEW250 31/23 A3004 RMK AO2 SLP169 T03060228 10356 20306 56003

METAR KNQI 232256Z 13015KT 10SM FEW250 32/22 A3005 RMK AO2 SLP171 T03220222

METAR KALI 240053Z 14013KT 10SM CLR 29/21 A3004 RMK AO2 SLP168 T02890211 TSNO

METAR KBKS 240115Z 12011G16KT 10SM CLR 30/23 A3003 RMK AO1 T02980226

METAR KCRP 240051Z 14013KT 10SM FEW250 29/23 A3006 RMK AO2 SLP177 T02940233

TAF for NQI is not available.
TAF

KNQI - TAF KNQI 2323/2423 13014G20KT 9999 FEW250 QNH3001INS

KNQI - TEMPO 2323/2401 13016G22KT

KNQI - BECMG 2401/2403 14008KT 9999 FEW025 QNH3004INS

KNQI - FM240700 15007KT 9999 FEW018 QNH3000INS

KNQI - TEMPO 2409/2413 VRB06KT 9000 BR SCT015

KNQI - FM241400 16009KT 9999 SCT020 SCT250 QNH3003INS

KNQI - FM241800 15013G18KT 9999 FEW035 FEW250 QNH3002INS

KNQI - FM242100 14015G23KT 9999 FEW050 FEW250 QNH2999INS

KNQI - TEMPO 2421/2423 13017G24KT AUTOMATED SENSOR METWATCH 2405 TIL 2412 T24/2412Z T36/2420Z FN00003 =

KALI - TAF KALI 232323Z 2400/2424 15014G20KT P6SM SKC

KALI - FM240200 15009KT P6SM FEW020

KALI - FM240800 15004KT P6SM SCT015

KALI - TEMPO 2409/2413 6SM BR BKN018

KALI - FM241400 16015G21KT P6SM FEW018 SCT035 AMD NOT SKED =

KCRP - TAF KCRP 232323Z 2400/2424 14015G22KT P6SM FEW050

KCRP - FM240200 14010KT P6SM SCT015

KCRP - FM241500 16015G22KT P6SM SCT035 =

KNGP - TAF KNGP 2323/2423 14015KT 9999 FEW035 FEW250 QNH3000INS

KNGP - TEMPO 2323/2402 15016G23KT

KNGP - BECMG 2402/2404 15012KT 9999 FEW020 FEW250 QNH3004INS

KNGP - BECMG 2408/2410 16009KT 9999 FEW015 SCT250 QNH3003INS

KNGP - TEMPO 2409/2414 SCT015 BKN250

KNGP - FM241600 15013KT 9999 FEW030 BKN250 QNH2996INS

KNGP - TEMPO 2418/2423 13015G22KT FEW025 SCT250 AUTOMATED SENSOR METWATCH 2404 TIL 2411 T27/2412Z T34/2420Z FN20041 =

GlobalAir.com is loading additional information.
 Current Weather at NQI
87.0 F° (30.6 C°)

Southeast winds at 13.8 mph
Pressure:
30.04 in
Humidity:
63%
Wind:
Southeast at 13.8 mph
Dew Point:
73.0 F° (22.8 C°)
Visibility:
10.00 mi
NQI NOAA Radar




Find All Airport Services Find A Hotel Find A Rental Car Find A Golf Course Find A Restaurant $100 Hamburger



Airport Weather Forecast for KNQI

Translated METAR for KNQI (2356 UTC)
METAR:
KNQI 232356Z Kingsville Naval Air Station, Kingsville, TX (KNQI). Sep 23, 2356Z. Wind from 130° at 12 knots with gusts to 22 knots, 10 statute miles visibility, Few clouds at 25,000 feet, Temperature 31°C, Dewpoint 23°C, Altimeter is 30.04. Remarks: automated station with precipitation discriminator sea level pressure 1016.9 hectopascals hourly temp 30.6°C dewpoint 22.8°C 6-hour max temp 35.6°C 6-hour min temp 30.6°C 3-hour atmospheric pressure decreasing then steady; or decreasing then decreasing more slowly by 0.3 hectopascals
Conditions at:
KNQI (Kingsville Nas, TX) observed 2356 UTC 23 August 2016
Temperature:
87.0 F° (30.6 C°)
Dewpoint:
not reported - refer to area weather report
Pressure:
30.04 Hg
Winds:
not reported
Visibility:
10.00
Ceiling:
at least 12,000 feet AGL
Clouds:
not reported - refer to area weather report
Remarks:

Translated TAF for TAF for NQI is not available. Refer to local area forecast.
FBO's on the Field
FBO Company Facility Photos Services Transportation Aviation Fuel Prices: Prices include tax
Catering Weather Repair Courtesy Rental Type 100LL JetA JetA+ MOGAS 8087
 
Add another FBO Facility Photos Catering Weather Repair Courtesy Rental Type 100LL JetA JetA+ MOGAS 8087
Services Transportation Aviation Fuel Prices: Prices include tax
There are no FBO's currently reporting fuel at NQI. List your FBO now


model-print
model-print
model-print
model-print